Time;durP1;ratioP1;P1;durP2;ratioP2;P2;SDS_P1;SDS_P2;PMS_P1;PMS_P2;Temp;Humidity;BMP_temperature;BMP_pressure;BME280_temperature;BME280_humidity;BME280_pressure;Samples;Min_cycle;Max_cycle;Signal;HPM_P1;HPM_P2
2022/07/23 00:00:50;;;;;;;2.67;1.42;;;14.00;99.90;;;;;;5014197;28;20060;-68
2022/07/23 00:03:15;;;;;;;1.70;0.90;;;14.00;99.90;;;;;;5013739;28;20049;-68
2022/07/23 00:05:41;;;;;;;2.60;1.20;;;13.90;99.90;;;;;;5013903;28;20072;-68
2022/07/23 00:08:08;;;;;;;2.13;0.90;;;13.70;99.90;;;;;;5014692;28;20541;-68
2022/07/23 00:10:33;;;;;;;2.45;1.20;;;13.80;99.90;;;;;;5014299;28;20358;-68
2022/07/23 00:12:59;;;;;;;2.22;1.10;;;13.80;99.90;;;;;;5013901;28;20042;-68
2022/07/23 00:15:25;;;;;;;1.90;0.85;;;13.80;99.90;;;;;;5014393;28;20068;-68
2022/07/23 00:17:51;;;;;;;4.50;0.98;;;13.80;99.90;;;;;;4997290;28;20147;-68
2022/07/23 00:20:16;;;;;;;2.95;0.90;;;13.80;99.90;;;;;;5014029;28;20125;-68
2022/07/23 00:22:50;;;;;;;7.78;1.20;;;13.80;99.90;;;;;;5013842;28;20046;-68
2022/07/23 00:25:15;;;;;;;5.30;1.50;;;13.80;99.90;;;;;;5013862;28;20065;-68
2022/07/23 00:27:41;;;;;;;3.42;1.20;;;13.70;99.90;;;;;;5013982;28;20359;-68
2022/07/23 00:30:08;;;;;;;2.33;1.00;;;13.70;99.90;;;;;;5013724;28;20095;-68
2022/07/23 00:32:49;;;;;;;1.90;1.00;;;13.60;99.90;;;;;;5013175;28;20038;-68
2022/07/23 00:35:15;;;;;;;1.65;1.00;;;13.60;99.90;;;;;;5013927;28;20042;-68
2022/07/23 00:37:42;;;;;;;1.42;0.85;;;13.50;99.90;;;;;;5014371;28;20104;-68
2022/07/23 00:40:08;;;;;;;3.58;0.98;;;13.50;99.90;;;;;;5013588;28;20522;-68
2022/07/23 00:42:34;;;;;;;2.63;1.05;;;13.50;99.90;;;;;;4996337;28;20058;-68
2022/07/23 00:45:00;;;;;;;2.17;1.00;;;13.50;99.90;;;;;;5013561;28;20046;-67
2022/07/23 00:47:26;;;;;;;2.42;0.90;;;13.40;99.90;;;;;;5013835;28;20042;-68
2022/07/23 00:49:51;;;;;;;2.92;1.10;;;13.40;99.90;;;;;;5013459;28;20049;-68
2022/07/23 00:52:17;;;;;;;2.40;0.93;;;13.30;99.90;;;;;;5013415;28;20088;-68
2022/07/23 00:54:43;;;;;;;2.42;1.05;;;13.40;99.90;;;;;;4979850;28;20081;-68
2022/07/23 00:57:09;;;;;;;2.42;0.90;;;13.30;99.90;;;;;;5013454;28;20049;-68
2022/07/23 00:59:35;;;;;;;3.97;1.05;;;13.30;99.90;;;;;;5012991;28;20486;-69
2022/07/23 01:02:00;;;;;;;1.30;0.80;;;13.20;99.90;;;;;;5014089;28;20057;-68
2022/07/23 01:04:26;;;;;;;2.08;1.05;;;13.10;99.90;;;;;;5013211;28;20544;-68
2022/07/23 01:06:53;;;;;;;1.95;1.20;;;13.00;99.90;;;;;;5014126;28;20050;-68
2022/07/23 01:09:19;;;;;;;1.65;1.05;;;13.00;99.90;;;;;;5013358;28;20058;-68
2022/07/23 01:11:44;;;;;;;2.55;0.93;;;13.00;99.90;;;;;;5012969;28;20046;-68
2022/07/23 01:14:18;;;;;;;2.42;1.05;;;13.00;99.90;;;;;;4995809;28;20089;-68
2022/07/23 01:16:46;;;;;;;2.97;1.20;;;13.00;99.90;;;;;;5013226;28;20061;-68
2022/07/23 01:19:14;;;;;;;2.58;1.10;;;13.00;99.90;;;;;;5013210;28;20459;-68
2022/07/23 01:21:42;;;;;;;2.00;1.00;;;13.00;99.90;;;;;;4996080;28;20049;-67
2022/07/23 01:24:09;;;;;;;1.50;0.95;;;12.90;99.90;;;;;;4995546;28;20058;-68
2022/07/23 01:26:35;;;;;;;1.92;1.13;;;12.90;99.90;;;;;;5013101;28;20045;-68
2022/07/23 01:29:01;;;;;;;2.70;1.20;;;12.90;99.90;;;;;;5013821;28;20061;-68
2022/07/23 01:31:27;;;;;;;2.70;1.20;;;13.00;99.90;;;;;;5012967;28;20072;-68
2022/07/23 01:33:53;;;;;;;2.67;1.20;;;13.00;99.90;;;;;;5013045;28;20053;-68
2022/07/23 01:36:19;;;;;;;2.85;1.50;;;13.00;99.90;;;;;;5013171;28;20050;-68
2022/07/23 01:38:44;;;;;;;2.92;1.23;;;13.10;99.90;;;;;;5013185;28;20107;-68
2022/07/23 01:41:10;;;;;;;2.03;1.48;;;13.10;99.90;;;;;;5012780;28;20045;-67
2022/07/23 01:43:36;;;;;;;2.45;1.60;;;13.20;99.90;;;;;;5014544;28;20188;-68
2022/07/23 01:46:01;;;;;;;1.90;1.27;;;13.20;99.90;;;;;;5016558;28;20050;-69
2022/07/23 01:48:27;;;;;;;2.33;1.40;;;13.20;99.90;;;;;;4999348;28;20045;-68
2022/07/23 01:50:53;;;;;;;3.28;1.58;;;13.30;99.90;;;;;;5016232;28;20129;-68
2022/07/23 01:53:18;;;;;;;4.07;1.77;;;13.30;99.90;;;;;;5016355;28;20042;-68
2022/07/23 01:55:44;;;;;;;2.17;1.50;;;13.20;99.90;;;;;;5016971;28;20042;-68
2022/07/23 01:58:10;;;;;;;2.33;1.60;;;13.20;99.90;;;;;;4998830;28;20096;-68
2022/07/23 02:00:35;;;;;;;3.10;1.58;;;13.10;99.90;;;;;;5016354;28;20052;-68
2022/07/23 02:03:01;;;;;;;3.13;1.35;;;13.10;99.90;;;;;;5016112;28;20045;-68
2022/07/23 02:05:31;;;;;;;2.65;1.50;;;13.00;99.90;;;;;;4982408;28;20498;-68
2022/07/23 02:07:57;;;;;;;2.67;1.23;;;13.00;99.90;;;;;;5016230;28;20053;-68
2022/07/23 02:10:24;;;;;;;2.40;1.17;;;12.90;99.90;;;;;;5016295;28;20046;-68
2022/07/23 02:12:49;;;;;;;2.15;0.85;;;12.80;99.90;;;;;;5016082;28;20042;-67
2022/07/23 02:15:15;;;;;;;1.67;0.70;;;12.80;99.90;;;;;;5016104;28;20045;-68
2022/07/23 02:17:41;;;;;;;2.10;1.02;;;12.70;99.90;;;;;;5016357;28;20045;-68
2022/07/23 02:20:08;;;;;;;3.70;1.10;;;12.60;99.90;;;;;;5016543;28;20050;-69
2022/07/23 02:22:34;;;;;;;5.00;1.40;;;12.50;99.90;;;;;;5015968;28;20046;-68
2022/07/23 02:25:00;;;;;;;2.50;0.90;;;12.50;99.90;;;;;;5016268;28;20074;-68
2022/07/23 02:27:26;;;;;;;1.88;1.05;;;12.40;99.90;;;;;;4998467;28;20497;-68
2022/07/23 02:29:51;;;;;;;9.07;1.00;;;12.40;99.90;;;;;;4998381;28;20052;-68
2022/07/23 02:32:17;;;;;;;4.78;1.20;;;12.40;99.90;;;;;;5015650;28;20038;-68
2022/07/23 02:34:43;;;;;;;2.95;0.85;;;12.40;99.90;;;;;;5015765;28;20053;-68
2022/07/23 02:37:08;;;;;;;1.67;1.00;;;12.30;99.90;;;;;;5015701;28;20048;-68
2022/07/23 02:39:35;;;;;;;3.28;1.23;;;12.20;99.90;;;;;;5015704;28;20050;-68
2022/07/23 02:42:01;;;;;;;3.08;1.50;;;12.20;99.90;;;;;;5016358;28;20045;-67
2022/07/23 02:44:27;;;;;;;3.17;1.40;;;12.20;99.90;;;;;;5015588;28;20042;-68
2022/07/23 02:46:53;;;;;;;3.00;1.45;;;12.20;99.90;;;;;;5015489;28;20045;-67
2022/07/23 02:49:19;;;;;;;2.80;1.60;;;12.20;99.90;;;;;;5015748;28;20042;-68
2022/07/23 02:51:44;;;;;;;3.10;1.40;;;12.20;99.90;;;;;;5015434;28;20045;-67
2022/07/23 02:54:10;;;;;;;3.35;1.58;;;12.20;99.90;;;;;;5015215;28;20049;-68
2022/07/23 02:56:36;;;;;;;2.97;1.60;;;12.10;99.90;;;;;;5015325;28;20124;-68
2022/07/23 02:59:01;;;;;;;2.05;1.40;;;12.20;99.90;;;;;;5015310;28;20050;-68
2022/07/23 03:01:27;;;;;;;1.95;1.20;;;12.10;99.90;;;;;;5015209;28;20046;-68
2022/07/23 03:03:53;;;;;;;1.60;1.02;;;12.00;99.90;;;;;;5015434;28;20050;-67
2022/07/23 03:06:18;;;;;;;2.65;1.00;;;12.00;99.90;;;;;;5015823;28;20062;-68
2022/07/23 03:08:44;;;;;;;2.80;1.20;;;11.90;99.90;;;;;;5015088;28;20124;-68
2022/07/23 03:11:13;;;;;;;3.22;1.27;;;11.90;99.90;;;;;;5015514;28;20351;-68
2022/07/23 03:13:40;;;;;;;3.00;1.50;;;11.90;99.90;;;;;;5014965;28;20061;-68
2022/07/23 03:16:06;;;;;;;2.85;2.05;;;11.90;99.90;;;;;;5014967;28;20058;-68
2022/07/23 03:18:32;;;;;;;2.20;1.40;;;11.90;99.90;;;;;;5014998;28;20125;-68
2022/07/23 03:20:57;;;;;;;3.10;1.73;;;11.90;99.90;;;;;;5014873;28;20052;-68
2022/07/23 03:23:23;;;;;;;2.97;1.60;;;11.80;99.90;;;;;;5014880;28;20085;-68
2022/07/23 03:25:49;;;;;;;3.80;1.80;;;11.80;99.90;;;;;;4997212;28;20064;-68
2022/07/23 03:28:16;;;;;;;3.25;1.60;;;11.80;99.90;;;;;;5015174;28;20398;-68
2022/07/23 03:30:46;;;;;;;3.15;1.65;;;11.80;99.90;;;;;;5014644;28;20053;-68
2022/07/23 03:33:13;;;;;;;2.28;1.30;;;11.80;99.90;;;;;;5014485;28;20057;-68
2022/07/23 03:35:39;;;;;;;2.80;1.40;;;11.70;99.90;;;;;;5014672;28;20120;-68
2022/07/23 03:38:05;;;;;;;2.55;1.52;;;11.70;99.90;;;;;;5014613;28;20084;-69
2022/07/23 03:40:30;;;;;;;4.28;1.90;;;11.60;99.90;;;;;;5015062;28;20038;-68
2022/07/23 03:42:56;;;;;;;3.67;1.48;;;11.60;99.90;;;;;;5014474;28;20073;-68
2022/07/23 03:45:22;;;;;;;2.10;1.30;;;11.60;99.90;;;;;;5014117;28;20049;-68
2022/07/23 03:47:47;;;;;;;2.95;1.80;;;11.50;99.90;;;;;;5014439;28;20081;-68
2022/07/23 03:50:13;;;;;;;3.45;1.70;;;11.30;99.90;;;;;;5014317;28;20064;-68
2022/07/23 03:52:39;;;;;;;3.13;1.60;;;11.30;99.90;;;;;;5014305;28;20172;-68
2022/07/23 03:55:05;;;;;;;3.05;1.65;;;11.20;99.90;;;;;;5014284;28;20050;-68
2022/07/23 03:57:31;;;;;;;3.95;1.55;;;11.20;99.90;;;;;;5014968;28;20121;-68
2022/07/23 03:59:57;;;;;;;5.35;1.80;;;11.30;99.90;;;;;;5014640;28;20435;-68
2022/07/23 04:02:22;;;;;;;3.60;2.00;;;11.20;99.90;;;;;;5014047;28;20482;-67
2022/07/23 04:04:48;;;;;;;2.55;1.73;;;11.20;99.90;;;;;;5014025;28;20096;-68
2022/07/23 04:07:14;;;;;;;4.25;2.03;;;11.20;99.90;;;;;;5013490;28;20395;-68
2022/07/23 04:09:40;;;;;;;4.03;2.00;;;11.20;99.90;;;;;;5013971;28;20053;-68
2022/07/23 04:12:07;;;;;;;2.95;1.65;;;11.30;99.90;;;;;;4996387;28;20048;-68
2022/07/23 04:14:33;;;;;;;4.43;1.63;;;11.30;99.90;;;;;;5013949;28;20160;-68
2022/07/23 04:16:59;;;;;;;4.45;1.40;;;11.40;99.90;;;;;;5014208;28;20068;-68
2022/07/23 04:19:25;;;;;;;3.15;1.50;;;11.40;99.90;;;;;;4996829;28;20453;-68
2022/07/23 04:21:51;;;;;;;4.35;2.13;;;11.50;99.90;;;;;;5013778;28;20104;-68
2022/07/23 04:24:17;;;;;;;4.13;2.08;;;11.50;99.90;;;;;;5014054;28;20367;-68
2022/07/23 04:26:43;;;;;;;4.13;2.08;;;11.60;99.90;;;;;;5013707;28;20046;-68
2022/07/23 04:29:09;;;;;;;2.80;1.80;;;11.70;99.90;;;;;;5013760;28;20476;-68
2022/07/23 04:31:35;;;;;;;4.32;2.28;;;11.80;99.90;;;;;;5013596;28;20129;-68
2022/07/23 04:34:01;;;;;;;3.03;2.08;;;11.80;99.90;;;;;;4996237;28;20073;-68
2022/07/23 04:36:27;;;;;;;4.72;2.28;;;11.80;99.90;;;;;;5013681;28;20053;-68
2022/07/23 04:38:53;;;;;;;4.18;2.03;;;11.90;99.90;;;;;;5014380;28;20042;-68
2022/07/23 04:41:18;;;;;;;5.40;2.08;;;11.90;99.90;;;;;;5013571;28;20049;-68
2022/07/23 04:43:44;;;;;;;6.25;2.38;;;11.90;99.90;;;;;;5013504;28;20367;-68
2022/07/23 04:46:10;;;;;;;4.70;2.10;;;12.00;99.90;;;;;;5014040;28;20387;-68
2022/07/23 04:48:36;;;;;;;3.83;2.10;;;12.00;99.90;;;;;;4996072;28;20058;-68
2022/07/23 04:51:02;;;;;;;5.00;2.13;;;12.00;99.90;;;;;;5013405;28;20042;-68
2022/07/23 04:53:29;;;;;;;5.30;2.50;;;12.10;99.90;;;;;;5013490;28;20080;-68
2022/07/23 04:55:54;;;;;;;7.55;2.40;;;12.10;99.90;;;;;;4995719;28;20050;-68
2022/07/23 04:58:20;;;;;;;5.88;2.33;;;12.20;99.90;;;;;;5013452;28;20137;-68
2022/07/23 05:00:46;;;;;;;8.23;2.60;;;12.30;99.90;;;;;;4995997;28;20045;-68
2022/07/23 05:03:12;;;;;;;5.47;2.88;;;12.40;99.90;;;;;;5013257;28;20565;-68
2022/07/23 05:05:37;;;;;;;4.35;2.70;;;12.50;99.90;;;;;;5013740;28;20081;-68
2022/07/23 05:08:04;;;;;;;4.97;2.28;;;12.60;99.90;;;;;;4995801;28;20069;-68
2022/07/23 05:10:30;;;;;;;5.88;3.15;;;12.70;99.90;;;;;;5013299;28;20482;-68
2022/07/23 05:12:55;;;;;;;6.47;2.33;;;12.70;99.90;;;;;;5013189;28;20096;-68
2022/07/23 05:15:21;;;;;;;5.25;2.53;;;12.90;99.90;;;;;;5013482;28;20050;-68
2022/07/23 05:17:47;;;;;;;5.28;2.35;;;13.00;99.90;;;;;;5013207;28;20057;-68
2022/07/23 05:20:13;;;;;;;9.73;2.90;;;13.10;99.90;;;;;;5017149;28;20053;-68
2022/07/23 05:22:39;;;;;;;5.20;2.20;;;13.20;99.90;;;;;;5017135;28;20075;-70
2022/07/23 05:25:06;;;;;;;4.68;2.60;;;13.30;99.90;;;;;;5017018;28;20052;-68
2022/07/23 05:27:31;;;;;;;4.90;2.47;;;13.50;99.90;;;;;;5016733;28;20060;-68
2022/07/23 05:29:57;;;;;;;6.20;2.78;;;13.60;99.90;;;;;;5016978;28;20061;-68
2022/07/23 05:32:23;;;;;;;7.40;2.45;;;13.70;99.90;;;;;;5016749;28;20046;-68
2022/07/23 05:34:49;;;;;;;4.13;1.98;;;13.70;99.90;;;;;;5016932;28;20045;-68
2022/07/23 05:37:15;;;;;;;3.70;1.98;;;13.90;99.90;;;;;;5016825;28;20058;-68
2022/07/23 05:39:40;;;;;;;4.85;2.10;;;14.00;99.90;;;;;;5016826;28;20046;-68
2022/07/23 05:42:06;;;;;;;4.25;1.70;;;14.10;99.90;;;;;;5016763;28;20050;-68
2022/07/23 05:44:32;;;;;;;4.47;1.90;;;14.20;99.90;;;;;;5016732;28;20100;-68
2022/07/23 05:46:57;;;;;;;2.85;1.88;;;14.20;99.90;;;;;;5017570;28;20050;-68
2022/07/23 05:49:23;;;;;;;3.92;2.00;;;14.30;99.90;;;;;;5016653;28;20046;-69
2022/07/23 05:51:49;;;;;;;4.82;2.40;;;14.30;99.90;;;;;;5016503;28;20041;-69
2022/07/23 05:54:14;;;;;;;3.17;1.98;;;14.40;99.90;;;;;;5017086;28;20534;-68
2022/07/23 05:56:40;;;;;;;3.50;1.90;;;14.50;99.90;;;;;;5016503;28;20060;-68
2022/07/23 05:59:06;;;;;;;3.80;1.90;;;14.60;99.90;;;;;;5016410;28;20171;-68
2022/07/23 06:01:31;;;;;;;4.38;1.95;;;14.60;99.90;;;;;;5016432;28;20046;-69
2022/07/23 06:03:57;;;;;;;4.25;2.20;;;14.70;99.90;;;;;;4999022;28;20421;-69
2022/07/23 06:06:23;;;;;;;4.30;2.00;;;14.80;99.90;;;;;;5016171;28;20537;-68
2022/07/23 06:08:48;;;;;;;2.47;1.77;;;14.90;99.90;;;;;;5016310;28;20050;-69
2022/07/23 06:11:14;;;;;;;3.97;1.98;;;15.00;99.90;;;;;;5016686;28;20386;-69
2022/07/23 06:13:40;;;;;;;3.55;1.90;;;15.00;99.90;;;;;;5015899;28;20069;-69
2022/07/23 06:16:05;;;;;;;3.85;1.90;;;15.00;99.90;;;;;;5016832;28;20052;-69
2022/07/23 06:18:31;;;;;;;2.78;1.70;;;15.00;99.90;;;;;;5016146;28;20042;-69
2022/07/23 06:20:57;;;;;;;3.53;1.60;;;15.10;99.90;;;;;;4998803;28;20093;-69
2022/07/23 06:23:22;;;;;;;6.07;2.45;;;15.10;99.90;;;;;;5016122;28;20042;-69
2022/07/23 06:25:48;;;;;;;3.78;1.90;;;15.20;99.90;;;;;;5016233;28;20095;-69
2022/07/23 06:28:14;;;;;;;5.22;1.67;;;15.20;99.90;;;;;;5015913;28;20085;-69
2022/07/23 06:30:39;;;;;;;5.28;1.80;;;15.30;99.90;;;;;;5015364;28;20375;-69
2022/07/23 06:33:05;;;;;;;4.88;1.58;;;15.40;99.90;;;;;;5015601;28;20528;-68
2022/07/23 06:35:31;;;;;;;2.80;1.70;;;15.50;99.90;;;;;;5016024;28;20355;-69
2022/07/23 06:37:56;;;;;;;2.58;1.10;;;15.60;99.90;;;;;;5015768;28;20052;-69
2022/07/23 06:40:22;;;;;;;2.10;1.30;;;15.70;99.90;;;;;;5015664;28;20050;-69
2022/07/23 06:42:48;;;;;;;3.50;1.27;;;15.80;99.90;;;;;;5015568;28;20046;-68
2022/07/23 06:45:13;;;;;;;2.45;1.02;;;15.90;99.90;;;;;;5015301;28;20486;-68
2022/07/23 06:47:40;;;;;;;2.30;1.63;;;15.90;99.90;;;;;;5015549;28;20046;-68
2022/07/23 06:50:06;;;;;;;3.13;1.42;;;16.00;99.90;;;;;;4997833;28;20554;-69
2022/07/23 06:52:32;;;;;;;2.50;1.10;;;16.10;99.90;;;;;;4998741;28;20132;-68
2022/07/23 06:54:57;;;;;;;3.20;1.30;;;16.10;99.90;;;;;;4997901;28;20136;-69
2022/07/23 06:57:25;;;;;;;2.03;1.10;;;16.20;99.90;;;;;;5015386;28;20050;-64
2022/07/23 06:59:51;;;;;;;2.03;1.00;;;16.30;99.90;;;;;;5015299;28;20120;-64
2022/07/23 07:02:17;;;;;;;2.58;1.05;;;16.30;99.90;;;;;;5015174;28;20124;-64
2022/07/23 07:04:43;;;;;;;3.80;1.10;;;16.40;99.90;;;;;;4981552;28;20091;-66
2022/07/23 07:07:08;;;;;;;2.53;1.00;;;16.40;99.90;;;;;;5015213;28;20092;-64
2022/07/23 07:09:34;;;;;;;2.22;0.80;;;16.50;99.90;;;;;;5015297;28;20092;-65
2022/07/23 07:12:00;;;;;;;3.20;0.98;;;16.50;99.90;;;;;;5014655;28;20053;-64
2022/07/23 07:14:26;;;;;;;2.38;1.25;;;16.60;99.90;;;;;;5015316;28;20057;-64
2022/07/23 07:16:51;;;;;;;3.17;0.90;;;16.70;99.90;;;;;;5015252;28;20121;-64
2022/07/23 07:19:17;;;;;;;2.40;1.00;;;16.70;99.90;;;;;;5015453;28;20054;-64
2022/07/23 07:21:43;;;;;;;1.50;0.80;;;16.80;99.90;;;;;;5015385;28;20050;-64
2022/07/23 07:24:08;;;;;;;2.83;1.10;;;16.90;99.90;;;;;;5014950;28;20398;-64
2022/07/23 07:26:34;;;;;;;2.63;0.98;;;17.00;99.90;;;;;;5014823;28;20368;-65
2022/07/23 07:29:00;;;;;;;2.45;1.10;;;17.10;99.90;;;;;;4997493;28;20072;-64
2022/07/23 07:31:26;;;;;;;3.00;0.88;;;17.20;99.90;;;;;;5014705;28;20046;-64
2022/07/23 07:33:52;;;;;;;1.95;0.85;;;17.20;99.90;;;;;;5014591;28;20464;-64
2022/07/23 07:36:17;;;;;;;1.88;0.82;;;17.10;99.90;;;;;;5014404;28;20064;-64
2022/07/23 07:38:43;;;;;;;1.45;0.82;;;17.10;99.90;;;;;;4997904;28;20046;-65
2022/07/23 07:41:10;;;;;;;1.33;0.80;;;17.10;99.90;;;;;;5014183;28;20038;-64
2022/07/23 07:43:36;;;;;;;0.98;0.57;;;17.30;99.90;;;;;;4996961;28;20075;-64
2022/07/23 07:46:03;;;;;;;3.15;0.90;;;17.40;99.90;;;;;;5014468;28;20449;-64
2022/07/23 07:48:29;;;;;;;2.35;0.73;;;17.50;99.90;;;;;;5014505;28;20049;-64
2022/07/23 07:50:55;;;;;;;1.40;0.60;;;17.60;99.90;;;;;;5014874;28;20356;-64
2022/07/23 07:53:20;;;;;;;1.38;0.80;;;17.60;99.90;;;;;;5014141;28;20078;-64
2022/07/23 07:55:46;;;;;;;1.98;0.77;;;17.50;99.90;;;;;;5014360;28;20050;-64
2022/07/23 07:58:12;;;;;;;1.60;0.70;;;17.40;99.90;;;;;;5014760;28;20070;-64
2022/07/23 08:00:37;;;;;;;1.52;0.70;;;17.60;99.90;;;;;;5014283;28;20120;-65
2022/07/23 08:03:03;;;;;;;2.50;0.80;;;17.70;99.90;;;;;;5014585;28;20046;-64
2022/07/23 08:05:30;;;;;;;1.35;0.60;;;17.90;99.90;;;;;;5014624;28;20397;-64
2022/07/23 08:07:57;;;;;;;1.38;0.70;;;18.00;99.90;;;;;;5013441;28;20053;-64
2022/07/23 08:10:24;;;;;;;1.10;0.70;;;18.00;99.90;;;;;;4996940;28;20456;-65
2022/07/23 08:12:53;;;;;;;1.52;0.93;;;18.00;99.90;;;;;;5013720;28;20044;-64
2022/07/23 08:15:20;;;;;;;1.38;0.65;;;17.90;99.90;;;;;;5014300;28;20046;-64
2022/07/23 08:17:47;;;;;;;1.85;0.65;;;17.90;99.90;;;;;;5013879;28;20054;-64
2022/07/23 08:20:14;;;;;;;1.25;0.60;;;17.90;99.90;;;;;;5013463;28;20435;-64
2022/07/23 08:22:43;;;;;;;2.08;0.63;;;17.90;99.90;;;;;;5013841;28;20083;-64
2022/07/23 08:25:10;;;;;;;0.70;0.50;;;17.80;99.90;;;;;;5013662;28;20485;-64
2022/07/23 08:27:35;;;;;;;1.40;0.73;;;18.00;99.90;;;;;;5013646;28;20050;-65
2022/07/23 08:30:01;;;;;;;1.55;0.68;;;18.10;99.90;;;;;;5013690;28;20049;-65
2022/07/23 08:32:27;;;;;;;1.48;0.60;;;18.20;99.90;;;;;;4996255;28;20562;-65
2022/07/23 08:34:52;;;;;;;2.20;0.70;;;18.00;99.90;;;;;;5013580;28;20108;-66
2022/07/23 08:37:18;;;;;;;2.22;0.60;;;17.90;99.90;;;;;;5013473;28;20107;-64
2022/07/23 08:39:44;;;;;;;2.13;0.70;;;17.90;99.90;;;;;;4996367;28;20057;-64
2022/07/23 08:42:09;;;;;;;1.75;0.60;;;18.20;99.90;;;;;;5013485;28;20115;-64
2022/07/23 08:44:35;;;;;;;1.42;0.50;;;18.50;99.90;;;;;;5013432;28;20368;-64
2022/07/23 08:47:01;;;;;;;3.67;0.65;;;18.70;99.90;;;;;;5013500;28;20045;-65
2022/07/23 08:49:29;;;;;;;1.35;0.60;;;18.70;99.90;;;;;;4996053;28;20475;-64
2022/07/23 08:51:55;;;;;;;2.10;0.50;;;18.60;99.90;;;;;;5013059;28;20093;-64
2022/07/23 08:54:22;;;;;;;1.50;0.55;;;18.60;99.90;;;;;;5013519;28;20555;-64
2022/07/23 08:56:48;;;;;;;2.00;0.70;;;18.50;99.90;;;;;;5013537;28;20095;-64
2022/07/23 08:59:14;;;;;;;1.38;0.60;;;18.30;99.90;;;;;;4996587;28;20419;-65
2022/07/23 09:01:40;;;;;;;1.23;0.60;;;18.20;99.90;;;;;;5013107;28;20471;-65
2022/07/23 09:04:06;;;;;;;1.27;0.70;;;18.20;99.90;;;;;;5013809;28;20061;-64
2022/07/23 09:06:32;;;;;;;1.80;0.70;;;18.40;99.90;;;;;;5013628;28;20061;-65
2022/07/23 09:08:57;;;;;;;1.77;0.60;;;18.50;99.90;;;;;;5013233;28;20546;-64
2022/07/23 09:11:23;;;;;;;1.25;0.57;;;18.50;99.90;;;;;;5013229;28;20088;-64
2022/07/23 09:13:50;;;;;;;1.15;0.60;;;18.30;99.90;;;;;;5013770;28;20370;-64
2022/07/23 09:16:35;;;;;;;1.52;0.65;;;18.30;99.90;;;;;;4996145;28;20451;-64
2022/07/23 09:19:04;;;;;;;3.42;0.70;;;18.50;99.90;;;;;;5012560;28;20061;-64
2022/07/23 09:21:35;;;;;;;1.00;0.55;;;18.60;99.90;;;;;;5013138;28;20042;-64
2022/07/23 09:24:02;;;;;;;0.98;0.55;;;18.90;99.90;;;;;;5013077;28;20057;-64
2022/07/23 09:26:39;;;;;;;1.20;0.50;;;19.00;99.90;;;;;;5012966;28;20053;-65
2022/07/23 09:29:06;;;;;;;3.30;0.60;;;19.20;99.90;;;;;;4995870;28;20490;-65
2022/07/23 09:31:42;;;;;;;1.08;0.52;;;19.10;99.90;;;;;;4996338;28;20053;-64
2022/07/23 09:34:13;;;;;;;0.85;0.50;;;18.90;99.90;;;;;;5013050;28;20088;-65
2022/07/23 09:36:39;;;;;;;1.65;0.50;;;18.70;99.90;;;;;;4996250;28;20046;-65
2022/07/23 09:39:06;;;;;;;1.13;0.50;;;18.50;99.90;;;;;;5012942;28;20050;-64
2022/07/23 09:42:11;;;;;;;1.30;0.50;;;18.40;99.90;;;;;;4995507;28;20116;-64
2022/07/23 09:44:42;;;;;;;0.55;0.50;;;18.40;99.90;;;;;;5013158;28;20056;-65
2022/07/23 09:47:07;;;;;;;1.83;0.60;;;18.70;99.90;;;;;;5013540;28;20054;-64
2022/07/23 09:49:33;;;;;;;1.67;0.50;;;19.00;99.90;;;;;;5013404;28;20061;-64
2022/07/23 09:52:01;;;;;;;2.05;0.68;;;19.20;99.90;;;;;;5012831;28;20042;-65
2022/07/23 09:54:37;;;;;;;1.65;0.70;;;19.40;99.90;;;;;;5012899;28;20120;-65
2022/07/23 09:57:13;;;;;;;3.15;0.60;;;19.60;99.90;;;;;;5012970;28;20052;-65
2022/07/23 09:59:39;;;;;;;0.93;0.40;;;19.50;99.90;;;;;;5013153;28;20049;-65
2022/07/23 10:02:09;;;;;;;0.60;0.40;;;19.40;99.90;;;;;;5013366;28;20046;-65
2022/07/23 10:04:35;;;;;;;1.25;0.50;;;19.50;99.90;;;;;;4996366;28;20053;-65
2022/07/23 10:07:04;;;;;;;1.08;0.55;;;19.60;99.90;;;;;;5016290;28;20050;-64
2022/07/23 10:09:32;;;;;;;0.77;0.47;;;19.60;99.90;;;;;;5016450;28;20111;-65
2022/07/23 10:14:34;;;;;;;0.80;0.43;;;19.80;99.90;;;;;;5016456;28;20136;-65
2022/07/23 10:17:03;;;;;;;1.15;0.50;;;19.80;99.90;;;;;;5016060;28;20543;-64
2022/07/23 10:19:30;;;;;;;1.95;0.75;;;19.80;99.90;;;;;;5016499;28;20109;-64
2022/07/23 10:22:11;;;;;;;1.35;0.50;;;19.80;99.90;;;;;;5016678;28;20097;-64
2022/07/23 10:24:58;;;;;;;1.15;0.40;;;19.90;99.90;;;;;;4998351;28;20042;-65
2022/07/23 10:27:49;;;;;;;1.35;0.50;;;19.90;99.90;;;;;;5016406;28;20046;-65
2022/07/23 10:30:42;;;;;;;0.82;0.45;;;19.80;99.90;;;;;;5015928;28;20088;-64
2022/07/23 10:33:44;;;;;;;0.95;0.50;;;19.70;99.90;;;;;;5016401;28;20041;-65
2022/07/23 10:36:27;;;;;;;1.27;0.50;;;19.80;99.90;;;;;;5015635;28;20458;-65
2022/07/23 10:38:55;;;;;;;1.02;0.40;;;20.00;99.90;;;;;;5015781;28;20053;-65
2022/07/23 10:41:36;;;;;;;1.00;0.60;;;20.10;99.90;;;;;;5015587;28;20038;-65
2022/07/23 10:44:10;;;;;;;1.00;0.52;;;20.20;99.90;;;;;;4999104;28;20354;-65
2022/07/23 10:47:00;;;;;;;1.75;0.50;;;20.30;99.90;;;;;;5016053;28;20053;-64
2022/07/23 10:49:27;;;;;;;1.38;0.60;;;20.40;99.90;;;;;;5015903;28;20048;-64
2022/07/23 10:52:14;;;;;;;0.70;0.43;;;20.40;99.90;;;;;;5015386;28;20049;-65
2022/07/23 10:54:41;;;;;;;0.82;0.47;;;20.40;99.90;;;;;;5015382;28;20085;-66
2022/07/23 10:57:08;;;;;;;1.02;0.50;;;20.50;99.90;;;;;;5015469;28;20085;-64
2022/07/23 11:00:00;;;;;;;2.30;0.68;;;20.50;99.90;;;;;;5015372;28;20135;-65
2022/07/23 11:02:27;;;;;;;3.08;0.70;;;20.50;99.90;;;;;;4977976;28;20103;-65
2022/07/23 11:04:53;;;;;;;1.33;0.60;;;20.60;99.90;;;;;;4997583;28;20133;-65
2022/07/23 11:07:19;;;;;;;1.45;0.60;;;20.70;99.90;;;;;;5015474;28;20447;-65
2022/07/23 11:09:47;;;;;;;1.58;0.60;;;20.70;99.90;;;;;;4998109;28;20100;-65
2022/07/23 11:12:13;;;;;;;0.90;0.60;;;20.70;99.90;;;;;;4982543;28;20057;-65
2022/07/23 11:14:58;;;;;;;1.58;0.60;;;20.70;99.90;;;;;;5015125;28;20462;-64
2022/07/23 11:17:27;;;;;;;1.30;0.50;;;20.80;99.90;;;;;;5015071;28;20049;-65
2022/07/23 11:20:17;;;;;;;0.90;0.50;;;20.70;99.90;;;;;;5015385;28;20156;-65
2022/07/23 11:22:42;;;;;;;1.02;0.60;;;20.60;99.90;;;;;;5014988;28;20049;-66
2022/07/23 11:25:20;;;;;;;1.30;0.63;;;20.60;99.90;;;;;;4997368;28;20042;-65
2022/07/23 11:27:47;;;;;;;1.30;0.73;;;20.70;99.90;;;;;;5014449;28;20053;-65
2022/07/23 11:30:28;;;;;;;1.63;0.68;;;20.80;99.90;;;;;;5015511;28;20074;-64
2022/07/23 11:33:14;;;;;;;1.65;0.77;;;20.90;99.90;;;;;;5014634;28;20046;-64
2022/07/23 11:35:42;;;;;;;1.20;0.60;;;20.80;99.90;;;;;;5014827;28;20045;-64
2022/07/23 11:38:22;;;;;;;1.30;0.60;;;20.80;99.90;;;;;;5015193;28;20057;-65
2022/07/23 11:40:54;;;;;;;1.20;0.70;;;20.80;99.90;;;;;;5015487;28;20073;-64
2022/07/23 11:43:20;;;;;;;0.98;0.50;;;20.70;99.90;;;;;;5014638;28;20382;-64
2022/07/23 11:45:50;;;;;;;1.40;0.70;;;20.60;99.90;;;;;;5014492;28;20057;-64
2022/07/23 11:48:19;;;;;;;1.55;0.60;;;20.60;99.90;;;;;;5014988;28;20045;-64
2022/07/23 11:50:45;;;;;;;1.30;0.60;;;20.50;99.90;;;;;;4997116;28;20045;-64
2022/07/23 11:53:11;;;;;;;1.80;0.80;;;20.50;99.90;;;;;;5014996;28;20041;-64
2022/07/23 11:55:37;;;;;;;1.48;0.68;;;20.60;99.90;;;;;;5014366;28;20125;-65
2022/07/23 11:58:03;;;;;;;2.10;0.63;;;20.70;99.90;;;;;;5014225;28;20168;-64
2022/07/23 12:00:30;;;;;;;1.70;0.80;;;20.70;99.90;;;;;;5014139;28;20131;-67
2022/07/23 12:03:00;;;;;;;1.35;0.70;;;20.80;99.90;;;;;;5014147;28;20034;-65
2022/07/23 12:05:29;;;;;;;2.45;0.70;;;20.90;99.90;;;;;;5014377;28;20089;-64
2022/07/23 12:07:56;;;;;;;2.13;0.73;;;20.90;99.90;;;;;;5014624;28;20045;-64
2022/07/23 12:10:33;;;;;;;1.25;0.70;;;20.80;99.90;;;;;;5014561;28;20045;-66
2022/07/23 12:13:13;;;;;;;1.55;0.80;;;20.80;99.90;;;;;;5014467;28;20046;-65
2022/07/23 12:15:44;;;;;;;1.02;0.60;;;20.70;99.90;;;;;;5014051;28;20117;-65
2022/07/23 12:18:14;;;;;;;1.38;0.85;;;20.60;99.90;;;;;;5014684;28;20038;-66
2022/07/23 12:20:43;;;;;;;2.55;0.77;;;20.70;99.90;;;;;;5013890;28;20038;-64
2022/07/23 12:23:11;;;;;;;1.42;0.80;;;20.70;99.90;;;;;;4996265;28;20129;-66
2022/07/23 12:25:40;;;;;;;2.38;1.00;;;20.70;99.90;;;;;;5013890;28;20046;-65
2022/07/23 12:28:07;;;;;;;2.10;0.98;;;20.80;99.90;;;;;;4995739;28;20044;-66
2022/07/23 12:30:40;;;;;;;1.70;0.80;;;20.70;99.90;;;;;;5013674;28;20088;-66
2022/07/23 12:33:08;;;;;;;1.50;0.80;;;20.80;99.90;;;;;;5013679;28;20042;-66
2022/07/23 12:35:45;;;;;;;2.35;0.93;;;20.70;99.90;;;;;;5013696;28;20145;-66
2022/07/23 12:38:16;;;;;;;2.33;1.20;;;20.70;99.90;;;;;;5013993;28;20374;-65
2022/07/23 12:40:47;;;;;;;1.65;0.80;;;20.80;99.90;;;;;;5013358;28;20528;-65
2022/07/23 12:43:21;;;;;;;1.40;0.80;;;20.90;99.90;;;;;;5013698;28;20542;-65
2022/07/23 12:45:56;;;;;;;2.42;0.95;;;21.10;99.90;;;;;;5013147;28;20089;-65
2022/07/23 12:48:30;;;;;;;1.60;1.00;;;21.20;99.90;;;;;;5013737;28;20410;-66
2022/07/23 12:51:00;;;;;;;3.75;1.00;;;21.30;99.90;;;;;;5014102;28;20082;-65
2022/07/23 12:53:31;;;;;;;1.88;0.80;;;21.20;99.90;;;;;;5012984;28;20497;-65